Time;durP1;ratioP1;P1;durP2;ratioP2;P2;SDS_P1;SDS_P2;PMS_P1;PMS_P2;Temp;Humidity;BMP_temperature;BMP_pressure;BME280_temperature;BME280_humidity;BME280_pressure;Samples;Min_cycle;Max_cycle;Signal;HPM_P1;HPM_P2
2021/08/11 00:02:03;;;;;;;;;;;14.20;94.90;;;;;;5054126;28;20015;-65
2021/08/11 00:04:29;;;;;;;;;;;14.20;94.90;;;;;;5054304;28;20427;-66
2021/08/11 00:06:54;;;;;;;;;;;14.20;94.90;;;;;;5053545;28;19920;-65
2021/08/11 00:09:20;;;;;;;;;;;14.20;94.90;;;;;;5052573;28;19921;-65
2021/08/11 00:11:45;;;;;;;;;;;14.20;94.90;;;;;;5052665;28;19963;-64
2021/08/11 00:14:11;;;;;;;;;;;14.20;95.00;;;;;;5053784;28;20336;-64
2021/08/11 00:16:36;;;;;;;;;;;14.20;95.00;;;;;;5052597;28;19928;-64
2021/08/11 00:19:02;;;;;;;;;;;14.20;95.00;;;;;;5053171;28;19952;-65
2021/08/11 00:21:27;;;;;;;;;;;14.20;95.00;;;;;;5035903;28;20066;-65
2021/08/11 00:23:53;;;;;;;;;;;14.20;95.00;;;;;;5053817;28;19921;-64
2021/08/11 00:26:19;;;;;;;;;;;14.20;94.90;;;;;;5053264;28;19916;-66
2021/08/11 00:28:45;;;;;;;;;;;14.10;94.90;;;;;;5053294;28;20011;-64
2021/08/11 00:31:10;;;;;;;;;;;14.10;94.90;;;;;;5018775;28;20328;-64
2021/08/11 00:33:36;;;;;;;;;;;14.10;94.90;;;;;;5052174;28;19924;-64
2021/08/11 00:36:02;;;;;;;;;;;14.00;94.90;;;;;;5052177;28;19917;-64
2021/08/11 00:38:28;;;;;;;;;;;14.00;94.90;;;;;;5051309;28;20362;-64
2021/08/11 00:41:02;;;;;;;;;;;14.00;95.00;;;;;;5052118;28;19924;-64
2021/08/11 00:43:29;;;;;;;;;;;13.90;95.00;;;;;;5035724;28;19952;-65
2021/08/11 00:45:54;;;;;;;;;;;13.90;95.00;;;;;;5051688;28;19927;-64
2021/08/11 00:48:23;;;;;;;;;;;13.90;95.00;;;;;;5051597;28;19917;-64
2021/08/11 00:50:49;;;;;;;;;;;13.80;95.00;;;;;;5051501;28;20400;-64
2021/08/11 00:53:16;;;;;;;;;;;13.80;95.00;;;;;;5051782;28;19924;-69
2021/08/11 00:55:44;;;;;;;;;;;13.80;95.10;;;;;;5051858;28;20225;-65
2021/08/11 00:58:11;;;;;;;;;;;13.80;95.10;;;;;;5051279;28;19929;-71
2021/08/11 01:00:44;;;;;;;;;;;13.80;95.10;;;;;;5051698;28;19917;-70
2021/08/11 01:03:20;;;;;;;;;;;13.70;95.10;;;;;;5050795;28;19916;-72
2021/08/11 01:05:47;;;;;;;;;;;13.70;95.10;;;;;;5051595;28;19978;-70
2021/08/11 01:08:14;;;;;;;;;;;13.70;95.10;;;;;;5050940;28;19917;-71
2021/08/11 01:10:40;;;;;;;;;;;13.70;95.10;;;;;;5051541;28;19960;-71
2021/08/11 01:13:07;;;;;;;;;;;13.60;95.10;;;;;;5051551;28;19917;-71
2021/08/11 01:15:33;;;;;;;;;;;13.60;95.10;;;;;;5034587;28;19992;-71
2021/08/11 01:17:58;;;;;;;;;;;13.60;95.20;;;;;;5050986;28;20003;-71
2021/08/11 01:20:25;;;;;;;;;;;13.60;95.20;;;;;;5050850;28;19944;-70
2021/08/11 01:23:04;;;;;;;;;;;13.60;95.10;;;;;;5051275;28;19943;-71
2021/08/11 01:25:30;;;;;;;;;;;13.50;95.10;;;;;;5051145;28;20015;-70
2021/08/11 01:28:06;;;;;;;;;;;13.50;95.20;;;;;;5052198;28;19923;-71
2021/08/11 01:30:31;;;;;;;;;;;13.50;95.20;;;;;;5051170;28;20296;-71
2021/08/11 01:33:16;;;;;;;;;;;13.50;95.20;;;;;;5050946;28;20106;-70
2021/08/11 01:35:45;;;;;;;;;;;13.40;95.20;;;;;;5052497;28;19917;-70
2021/08/11 01:38:14;;;;;;;;;;;13.40;95.20;;;;;;5050598;28;19916;-69
2021/08/11 01:40:46;;;;;;;;;;;13.40;95.20;;;;;;5051112;28;19921;-70
2021/08/11 01:43:13;;;;;;;;;;;13.40;95.30;;;;;;5050425;28;19921;-71
2021/08/11 01:45:41;;;;;;;;;;;13.30;95.40;;;;;;5051006;28;20281;-70
2021/08/11 01:48:10;;;;;;;;;;;13.30;95.30;;;;;;5051605;28;19917;-70
2021/08/11 01:50:39;;;;;;;;;;;13.30;95.20;;;;;;5050745;28;20027;-71
2021/08/11 01:53:09;;;;;;;;;;;13.30;95.30;;;;;;5050746;28;19927;-71
2021/08/11 01:55:36;;;;;;;;;;;13.20;95.20;;;;;;5050932;28;19963;-70
2021/08/11 01:58:04;;;;;;;;;;;13.20;95.20;;;;;;5050297;28;20369;-70
2021/08/11 02:00:31;;;;;;;;;;;13.20;95.20;;;;;;5050206;28;19970;-73
2021/08/11 02:03:00;;;;;;;;;;;13.10;95.20;;;;;;5050603;28;19916;-71
2021/08/11 02:05:30;;;;;;;;;;;13.10;95.20;;;;;;5050469;28;19986;-71
2021/08/11 02:07:58;;;;;;;;;;;13.10;95.30;;;;;;5051280;28;19917;-71
2021/08/11 02:10:26;;;;;;;;;;;13.00;95.40;;;;;;5051918;28;19924;-70
2021/08/11 02:12:53;;;;;;;;;;;13.00;95.30;;;;;;5050205;28;19962;-70
2021/08/11 02:15:19;;;;;;;;;;;13.00;95.40;;;;;;5049806;28;19937;-71
2021/08/11 02:17:46;;;;;;;;;;;13.00;95.40;;;;;;5050206;28;19952;-70
2021/08/11 02:20:14;;;;;;;;;;;12.90;95.40;;;;;;5050042;28;20293;-71
2021/08/11 02:22:40;;;;;;;;;;;12.90;95.30;;;;;;5050353;28;19916;-71
2021/08/11 02:25:08;;;;;;;;;;;12.90;95.50;;;;;;5050027;28;19917;-71
2021/08/11 02:27:38;;;;;;;;;;;12.90;95.50;;;;;;5050250;28;20358;-70
2021/08/11 02:30:13;;;;;;;;;;;12.90;95.50;;;;;;5050005;28;19950;-69
2021/08/11 02:32:52;;;;;;;;;;;12.90;95.50;;;;;;5050235;28;20440;-71
2021/08/11 02:35:24;;;;;;;;;;;12.90;95.40;;;;;;5049875;28;19928;-73
2021/08/11 02:37:58;;;;;;;;;;;12.90;95.40;;;;;;5049905;28;20388;-71
2021/08/11 02:40:27;;;;;;;;;;;12.80;95.40;;;;;;5049980;28;19917;-71
2021/08/11 02:42:58;;;;;;;;;;;12.80;95.40;;;;;;5050251;28;19913;-71
2021/08/11 02:45:26;;;;;;;;;;;12.80;95.50;;;;;;5050022;28;19917;-70
2021/08/11 02:47:53;;;;;;;;;;;12.80;95.50;;;;;;5049525;28;20392;-70
2021/08/11 02:50:22;;;;;;;;;;;12.80;95.60;;;;;;5050054;28;19917;-71
2021/08/11 02:52:49;;;;;;;;;;;12.80;95.60;;;;;;5049715;28;19919;-71
2021/08/11 02:55:15;;;;;;;;;;;12.80;95.60;;;;;;5051739;28;20304;-72
2021/08/11 02:57:42;;;;;;;;;;;12.80;95.50;;;;;;5049701;28;19917;-71
2021/08/11 03:00:08;;;;;;;;;;;12.70;95.50;;;;;;5053498;28;19917;-71
2021/08/11 03:02:34;;;;;;;;;;;12.70;95.50;;;;;;5057074;28;19939;-71
2021/08/11 03:05:01;;;;;;;;;;;12.70;95.50;;;;;;5054043;28;19928;-71
2021/08/11 03:07:28;;;;;;;;;;;12.60;95.50;;;;;;5053947;28;19940;-73
2021/08/11 03:09:54;;;;;;;;;;;12.60;95.50;;;;;;5053095;28;19917;-74
2021/08/11 03:12:20;;;;;;;;;;;12.60;95.60;;;;;;5053048;28;19947;-71
2021/08/11 03:14:48;;;;;;;;;;;12.60;95.60;;;;;;5054021;28;20440;-70
2021/08/11 03:17:14;;;;;;;;;;;12.60;95.60;;;;;;5053679;28;19917;-71
2021/08/11 03:19:40;;;;;;;;;;;12.60;95.50;;;;;;5053261;28;19917;-72
2021/08/11 03:22:07;;;;;;;;;;;12.50;95.50;;;;;;5053598;28;19939;-69
2021/08/11 03:24:33;;;;;;;;;;;12.50;95.50;;;;;;5052914;28;19916;-75
2021/08/11 03:27:00;;;;;;;;;;;12.50;95.60;;;;;;5055161;28;19913;-71
2021/08/11 03:29:27;;;;;;;;;;;12.50;95.60;;;;;;5057236;28;19947;-75
2021/08/11 03:31:53;;;;;;;;;;;12.50;95.60;;;;;;5056960;28;19921;-72
2021/08/11 03:34:18;;;;;;;;;;;12.40;95.60;;;;;;5056919;28;20411;-71
2021/08/11 03:36:49;;;;;;;;;;;12.40;95.60;;;;;;5053969;28;20111;-70
2021/08/11 03:39:14;;;;;;;;;;;12.40;95.60;;;;;;5054140;28;19923;-70
2021/08/11 03:41:40;;;;;;;;;;;12.40;95.70;;;;;;5037386;28;20373;-69
2021/08/11 03:44:06;;;;;;;;;;;12.40;95.70;;;;;;5053509;28;19921;-70
2021/08/11 03:46:36;;;;;;;;;;;12.40;95.70;;;;;;5053651;28;19923;-69
2021/08/11 03:49:01;;;;;;;;;;;12.40;95.70;;;;;;5054096;28;19916;-69
2021/08/11 03:51:29;;;;;;;;;;;12.30;95.70;;;;;;5054773;28;19945;-70
2021/08/11 03:53:55;;;;;;;;;;;12.30;95.80;;;;;;5054855;28;19917;-71
2021/08/11 03:56:21;;;;;;;;;;;12.40;95.80;;;;;;5053057;28;19999;-71
2021/08/11 03:58:47;;;;;;;;;;;12.30;95.90;;;;;;5052760;28;19920;-71
2021/08/11 04:01:13;;;;;;;;;;;12.40;95.90;;;;;;5053242;28;19939;-71
2021/08/11 04:03:39;;;;;;;;;;;12.40;95.90;;;;;;5054216;28;19920;-71
2021/08/11 04:06:04;;;;;;;;;;;12.40;95.90;;;;;;5054712;28;19917;-69
2021/08/11 04:08:30;;;;;;;;;;;12.40;95.90;;;;;;5053928;28;19917;-72
2021/08/11 04:10:55;;;;;;;;;;;12.40;95.90;;;;;;5053747;28;19936;-71
2021/08/11 04:13:21;;;;;;;;;;;12.40;95.90;;;;;;5054205;28;19924;-71
2021/08/11 04:15:46;;;;;;;;;;;12.40;95.90;;;;;;5054017;28;20349;-71
2021/08/11 04:18:12;;;;;;;;;;;12.40;96.00;;;;;;5053855;28;19917;-71
2021/08/11 04:20:38;;;;;;;;;;;12.40;96.00;;;;;;5054387;28;19921;-71
2021/08/11 04:23:04;;;;;;;;;;;12.40;96.00;;;;;;5055698;28;20408;-73
2021/08/11 04:25:30;;;;;;;;;;;12.40;96.00;;;;;;5057708;28;20000;-73
2021/08/11 04:27:56;;;;;;;;;;;12.40;96.10;;;;;;5057829;28;20309;-70
2021/08/11 04:30:22;;;;;;;;;;;12.40;96.20;;;;;;5055720;28;19970;-71
2021/08/11 04:32:47;;;;;;;;;;;12.50;96.30;;;;;;5057535;28;20041;-71
2021/08/11 04:35:13;;;;;;;;;;;12.50;96.30;;;;;;5056801;28;20002;-70
2021/08/11 04:37:38;;;;;;;;;;;12.50;96.30;;;;;;5057150;28;19931;-70
2021/08/11 04:40:05;;;;;;;;;;;12.50;96.30;;;;;;5056555;28;19917;-70
2021/08/11 04:42:31;;;;;;;;;;;12.60;96.40;;;;;;5056031;28;20108;-73
2021/08/11 04:44:56;;;;;;;;;;;12.60;96.50;;;;;;5057395;28;20373;-69
2021/08/11 04:47:22;;;;;;;;;;;12.70;96.50;;;;;;5055976;28;19917;-70
2021/08/11 04:49:47;;;;;;;;;;;12.70;96.50;;;;;;5054033;28;19916;-69
2021/08/11 04:52:13;;;;;;;;;;;12.70;96.50;;;;;;5053753;28;19971;-70
2021/08/11 04:54:38;;;;;;;;;;;12.80;96.50;;;;;;5044520;28;19920;-69
2021/08/11 04:57:05;;;;;;;;;;;12.80;96.60;;;;;;5053088;28;19928;-70
2021/08/11 04:59:30;;;;;;;;;;;12.90;96.70;;;;;;5053267;28;19920;-71
2021/08/11 05:01:56;;;;;;;;;;;13.00;96.70;;;;;;5052863;28;19969;-70
2021/08/11 05:04:21;;;;;;;;;;;13.00;96.70;;;;;;5053415;28;20382;-70
2021/08/11 05:06:47;;;;;;;;;;;13.10;96.80;;;;;;5052953;28;20293;-70
2021/08/11 05:09:12;;;;;;;;;;;13.20;96.90;;;;;;5051434;28;19916;-71
2021/08/11 05:11:38;;;;;;;;;;;13.30;97.00;;;;;;5052858;28;19987;-70
2021/08/11 05:14:04;;;;;;;;;;;13.40;97.00;;;;;;5052622;28;19917;-70
2021/08/11 05:16:29;;;;;;;;;;;13.50;97.00;;;;;;5052936;28;19952;-70
2021/08/11 05:18:55;;;;;;;;;;;13.60;97.10;;;;;;5051262;28;20365;-70
2021/08/11 05:21:21;;;;;;;;;;;13.80;97.20;;;;;;5051421;28;19917;-71
2021/08/11 05:23:47;;;;;;;;;;;13.90;97.20;;;;;;5052958;28;20004;-71
2021/08/11 05:26:12;;;;;;;;;;;14.10;97.30;;;;;;5052650;28;20008;-72
2021/08/11 05:28:38;;;;;;;;;;;14.20;97.30;;;;;;5052181;28;20372;-71
2021/08/11 05:31:03;;;;;;;;;;;14.30;97.30;;;;;;5052740;28;20026;-70
2021/08/11 05:33:29;;;;;;;;;;;14.50;97.30;;;;;;5052694;28;20355;-71
2021/08/11 05:35:54;;;;;;;;;;;14.60;97.20;;;;;;5052081;28;19966;-71
2021/08/11 05:38:20;;;;;;;;;;;14.80;97.20;;;;;;5052153;28;19917;-71
2021/08/11 05:40:46;;;;;;;;;;;14.90;97.20;;;;;;5050883;28;19942;-68
2021/08/11 05:43:11;;;;;;;;;;;15.00;97.40;;;;;;5052678;28;20008;-70
2021/08/11 05:45:37;;;;;;;;;;;15.30;97.70;;;;;;5052842;28;19917;-70
2021/08/11 05:48:02;;;;;;;;;;;15.70;98.30;;;;;;5050431;28;19917;-70
2021/08/11 05:50:28;;;;;;;;;;;16.50;99.40;;;;;;5051216;28;19928;-69
2021/08/11 05:52:53;;;;;;;;;;;17.60;99.90;;;;;;5051779;28;20035;-71
2021/08/11 05:55:19;;;;;;;;;;;18.60;99.90;;;;;;5051180;28;19916;-72
2021/08/11 05:57:44;;;;;;;;;;;19.20;99.00;;;;;;5051474;28;20401;-71
2021/08/11 06:00:10;;;;;;;;;;;19.80;98.10;;;;;;5051880;28;19916;-72
2021/08/11 06:02:39;;;;;;;;;;;20.60;98.30;;;;;;5051247;28;19925;-70
2021/08/11 06:05:16;;;;;;;;;;;21.60;97.80;;;;;;5050265;28;19916;-68
2021/08/11 06:07:42;;;;;;;;;;;22.60;96.70;;;;;;5051519;28;20448;-71
2021/08/11 06:10:08;;;;;;;;;;;23.40;95.90;;;;;;5052290;28;19967;-72
2021/08/11 06:12:33;;;;;;;;;;;24.20;95.50;;;;;;5050221;28;19921;-70
2021/08/11 06:14:59;;;;;;;;;;;25.10;95.00;;;;;;5050507;28;19917;-71
2021/08/11 06:17:25;;;;;;;;;;;25.80;93.30;;;;;;5050139;28;19921;-71
2021/08/11 06:19:50;;;;;;;;;;;26.40;91.60;;;;;;5051054;28;19917;-71
2021/08/11 06:22:16;;;;;;;;;;;26.80;90.80;;;;;;5051674;28;19983;-71
2021/08/11 06:24:42;;;;;;;;;;;27.40;90.80;;;;;;5051696;28;20281;-72
2021/08/11 06:27:07;;;;;;;;;;;28.00;88.70;;;;;;5050944;28;19924;-71
2021/08/11 06:29:33;;;;;;;;;;;28.40;84.90;;;;;;5051286;28;19982;-71
2021/08/11 06:31:59;;;;;;;;;;;28.70;83.90;;;;;;5051438;28;19962;-70
2021/08/11 06:34:25;;;;;;;;;;;29.10;83.40;;;;;;5051322;28;19917;-72
2021/08/11 06:36:51;;;;;;;;;;;29.50;81.10;;;;;;5051348;28;20295;-71
2021/08/11 06:39:17;;;;;;;;;;;29.90;77.80;;;;;;5050834;28;19928;-71
2021/08/11 06:41:42;;;;;;;;;;;30.20;76.00;;;;;;5051400;28;20288;-72
2021/08/11 06:44:17;;;;;;;;;;;30.60;74.40;;;;;;5049651;28;19917;-72
2021/08/11 06:46:43;;;;;;;;;;;31.10;72.80;;;;;;5049703;28;19947;-71
2021/08/11 06:49:10;;;;;;;;;;;31.50;70.30;;;;;;5049789;28;19945;-72
2021/08/11 06:51:35;;;;;;;;;;;32.10;68.00;;;;;;5049528;28;19975;-72
2021/08/11 06:54:01;;;;;;;;;;;32.50;64.90;;;;;;5051303;28;19921;-72
2021/08/11 06:56:26;;;;;;;;;;;32.90;62.20;;;;;;5051306;28;19933;-72
2021/08/11 06:58:52;;;;;;;;;;;33.20;60.40;;;;;;5051239;28;20008;-65
2021/08/11 07:01:17;;;;;;;;;;;33.50;59.10;;;;;;5051578;28;19919;-65
2021/08/11 07:03:43;;;;;;;;;;;33.90;57.50;;;;;;5055369;28;19917;-63
2021/08/11 07:06:08;;;;;;;;;;;34.30;56.20;;;;;;5054810;28;19937;-64
2021/08/11 07:08:34;;;;;;;;;;;34.70;54.40;;;;;;5054935;28;19917;-65
2021/08/11 07:10:59;;;;;;;;;;;35.10;52.80;;;;;;5054759;28;19920;-65
2021/08/11 07:13:25;;;;;;;;;;;35.30;51.00;;;;;;5053780;28;19986;-64
2021/08/11 07:15:51;;;;;;;;;;;35.30;49.10;;;;;;5053768;28;20328;-65
2021/08/11 07:18:19;;;;;;;;;;;35.10;47.40;;;;;;5054439;28;19917;-65
2021/08/11 07:20:46;;;;;;;;;;;34.90;47.80;;;;;;5054871;28;19924;-65
2021/08/11 07:23:13;;;;;;;;;;;35.00;47.70;;;;;;5054791;28;19916;-64
2021/08/11 07:25:39;;;;;;;;;;;35.50;47.60;;;;;;5054613;28;19917;-64
2021/08/11 07:28:05;;;;;;;;;;;35.90;45.60;;;;;;5054476;28;19917;-65
2021/08/11 07:30:31;;;;;;;;;;;35.90;44.50;;;;;;5054366;28;20397;-64
2021/08/11 07:32:57;;;;;;;;;;;36.00;44.00;;;;;;5053562;28;19924;-64
2021/08/11 07:35:23;;;;;;;;;;;35.80;43.70;;;;;;5053451;28;20300;-65
2021/08/11 07:37:49;;;;;;;;;;;35.20;41.90;;;;;;5053929;28;20004;-64
2021/08/11 07:40:15;;;;;;;;;;;35.00;43.80;;;;;;5054549;28;20004;-65
2021/08/11 07:42:42;;;;;;;;;;;35.60;43.60;;;;;;5054509;28;19956;-64
2021/08/11 07:45:08;;;;;;;;;;;35.90;42.00;;;;;;5054251;28;20062;-65
2021/08/11 07:47:34;;;;;;;;;;;35.80;41.90;;;;;;5054093;28;19916;-64
2021/08/11 07:49:59;;;;;;;;;;;35.10;39.10;;;;;;5054061;28;19973;-63
2021/08/11 07:52:25;;;;;;;;;;;34.10;41.20;;;;;;5054414;28;19921;-63
2021/08/11 07:54:50;;;;;;;;;;;33.40;41.10;;;;;;5054497;28;19960;-64
2021/08/11 07:57:16;;;;;;;;;;;32.70;40.80;;;;;;5053826;28;20085;-64
2021/08/11 07:59:42;;;;;;;;;;;31.30;39.90;;;;;;5054066;28;19982;-64
2021/08/11 08:02:11;;;;;;;;;;;29.40;41.00;;;;;;5053764;28;20003;-64
2021/08/11 08:04:37;;;;;;;;;;;27.90;42.60;;;;;;5054319;28;19944;-63
2021/08/11 08:07:02;;;;;;;;;;;26.60;44.50;;;;;;5053991;28;19916;-64
2021/08/11 08:09:28;;;;;;;;;;;25.90;47.00;;;;;;5053679;28;19951;-64
2021/08/11 08:11:54;;;;;;;;;;;25.50;47.20;;;;;;5052694;28;19925;-63
2021/08/11 08:14:19;;;;;;;;;;;24.90;47.80;;;;;;5052868;28;19924;-64
2021/08/11 08:16:45;;;;;;;;;;;24.20;48.80;;;;;;5051954;28;19921;-65
2021/08/11 08:19:11;;;;;;;;;;;23.90;51.00;;;;;;5053814;28;19921;-64
2021/08/11 08:21:37;;;;;;;;;;;23.70;52.00;;;;;;5053423;28;20389;-64
2021/08/11 08:24:04;;;;;;;;;;;23.70;52.50;;;;;;5053827;28;20304;-64
2021/08/11 08:26:29;;;;;;;;;;;25.40;59.80;;;;;;5054052;28;19916;-64
2021/08/11 08:28:55;;;;;;;;;;;28.80;62.20;;;;;;5053141;28;19917;-64
2021/08/11 08:31:21;;;;;;;;;;;31.90;55.80;;;;;;5053508;28;20024;-63
2021/08/11 08:33:47;;;;;;;;;;;33.60;50.00;;;;;;5053596;28;19960;-64
2021/08/11 08:36:12;;;;;;;;;;;34.70;47.60;;;;;;5052890;28;19990;-65
2021/08/11 08:38:38;;;;;;;;;;;35.80;45.70;;;;;;5053105;28;19928;-64
2021/08/11 08:41:03;;;;;;;;;;;36.10;43.10;;;;;;5052921;28;19943;-65
2021/08/11 08:43:29;;;;;;;;;;;36.80;43.00;;;;;;5053421;28;20345;-64
2021/08/11 08:45:55;;;;;;;;;;;38.10;41.90;;;;;;5053306;28;19966;-65
2021/08/11 08:48:20;;;;;;;;;;;39.20;39.50;;;;;;5051201;28;19917;-65
2021/08/11 08:50:49;;;;;;;;;;;39.80;38.00;;;;;;5053692;28;19939;-65
2021/08/11 08:53:20;;;;;;;;;;;40.70;37.60;;;;;;5056572;28;19917;-65
2021/08/11 08:55:46;;;;;;;;;;;41.80;37.00;;;;;;5053364;28;19917;-65
2021/08/11 08:58:12;;;;;;;;;;;41.90;34.30;;;;;;5052586;28;20385;-65
2021/08/11 09:00:37;;;;;;;;;;;41.50;34.50;;;;;;5052533;28;19917;-66
2021/08/11 09:03:06;;;;;;;;;;;42.00;34.60;;;;;;5053092;28;19998;-64
2021/08/11 09:05:31;;;;;;;;;;;42.50;33.70;;;;;;5052931;28;19916;-65
2021/08/11 09:07:57;;;;;;;;;;;42.90;33.00;;;;;;5052157;28;19971;-66
2021/08/11 09:10:27;;;;;;;;;;;43.30;32.80;;;;;;5053033;28;20369;-65
2021/08/11 09:12:54;;;;;;;;;;;44.10;32.50;;;;;;5052312;28;19921;-66
2021/08/11 09:15:27;;;;;;;;;;;44.90;32.00;;;;;;5052960;28;19931;-65
2021/08/11 09:17:52;;;;;;;;;;;45.10;30.70;;;;;;5052405;28;20008;-65
2021/08/11 09:20:25;;;;;;;;;;;45.60;30.70;;;;;;5052297;28;20055;-66
2021/08/11 09:22:52;;;;;;;;;;;46.30;30.30;;;;;;5052630;28;19975;-66
2021/08/11 09:25:18;;;;;;;;;;;46.90;29.70;;;;;;5050491;28;19946;-66
2021/08/11 09:27:44;;;;;;;;;;;46.80;28.30;;;;;;5052249;28;19916;-65
2021/08/11 09:30:10;;;;;;;;;;;46.60;28.80;;;;;;5052651;28;20015;-66
2021/08/11 09:32:52;;;;;;;;;;;46.80;28.60;;;;;;5052022;28;20059;-66
2021/08/11 09:35:19;;;;;;;;;;;46.60;27.80;;;;;;5051123;28;19920;-65
2021/08/11 09:37:46;;;;;;;;;;;43.50;26.70;;;;;;5051663;28;19917;-65
2021/08/11 09:40:13;;;;;;;;;;;40.10;28.50;;;;;;5052005;28;19924;-64
2021/08/11 09:42:39;;;;;;;;;;;38.50;29.20;;;;;;5051878;28;19917;-65
2021/08/11 09:45:08;;;;;;;;;;;36.70;29.80;;;;;;5052256;28;19913;-64
2021/08/11 09:47:34;;;;;;;;;;;34.80;30.60;;;;;;5051826;28;19917;-63
2021/08/11 09:50:00;;;;;;;;;;;32.90;31.80;;;;;;5051590;28;20328;-63
2021/08/11 09:52:26;;;;;;;;;;;33.00;36.80;;;;;;5052024;28;20012;-64
2021/08/11 09:55:00;;;;;;;;;;;35.80;38.20;;;;;;5051683;28;19936;-64
2021/08/11 09:57:29;;;;;;;;;;;38.20;35.90;;;;;;5051886;28;19924;-65
2021/08/11 09:59:56;;;;;;;;;;;40.50;34.10;;;;;;5052048;28;19921;-64
2021/08/11 10:02:25;;;;;;;;;;;40.30;31.00;;;;;;5051201;28;19967;-64
2021/08/11 10:04:51;;;;;;;;;;;39.30;30.40;;;;;;5050598;28;20387;-63
2021/08/11 10:07:17;;;;;;;;;;;38.50;30.90;;;;;;5049957;28;19917;-64
2021/08/11 10:09:43;;;;;;;;;;;37.80;31.10;;;;;;5051659;28;19920;-64
2021/08/11 10:12:25;;;;;;;;;;;37.90;31.80;;;;;;5051829;28;19978;-64
2021/08/11 10:14:50;;;;;;;;;;;37.50;31.40;;;;;;5051513;28;19917;-64
2021/08/11 10:17:16;;;;;;;;;;;35.80;30.50;;;;;;5051394;28;19999;-63
2021/08/11 10:19:43;;;;;;;;;;;33.90;31.80;;;;;;5049872;28;19949;-64
2021/08/11 10:22:11;;;;;;;;;;;33.30;35.20;;;;;;5051708;28;19917;-63
2021/08/11 10:24:39;;;;;;;;;;;34.10;36.00;;;;;;5050169;28;20413;-65
2021/08/11 10:27:05;;;;;;;;;;;35.50;35.60;;;;;;5051048;28;19917;-63
2021/08/11 10:29:31;;;;;;;;;;;35.00;33.30;;;;;;5051555;28;19981;-64
2021/08/11 10:31:57;;;;;;;;;;;33.60;33.30;;;;;;5051110;28;19921;-64
2021/08/11 10:34:23;;;;;;;;;;;33.80;36.80;;;;;;5051779;28;20404;-64
2021/08/11 10:36:49;;;;;;;;;;;35.00;35.50;;;;;;5050636;28;19917;-63
2021/08/11 10:39:16;;;;;;;;;;;35.90;36.30;;;;;;5050949;28;20437;-65
2021/08/11 10:41:41;;;;;;;;;;;37.40;35.30;;;;;;5051694;28;19917;-64
2021/08/11 10:44:14;;;;;;;;;;;39.60;35.00;;;;;;5051822;28;20270;-65
2021/08/11 10:46:42;;;;;;;;;;;41.70;33.70;;;;;;5051219;28;19948;-64
2021/08/11 10:49:16;;;;;;;;;;;43.10;31.40;;;;;;5051601;28;19951;-64
2021/08/11 10:51:43;;;;;;;;;;;44.20;30.10;;;;;;5051202;28;19921;-65
2021/08/11 10:54:09;;;;;;;;;;;45.40;29.70;;;;;;5051486;28;19956;-66
2021/08/11 10:56:48;;;;;;;;;;;46.40;29.20;;;;;;5050865;28;19924;-64
2021/08/11 10:59:27;;;;;;;;;;;47.30;28.60;;;;;;5051189;28;19920;-65
2021/08/11 11:01:54;;;;;;;;;;;48.00;28.00;;;;;;5051104;28;20010;-66
2021/08/11 11:04:38;;;;;;;;;;;48.20;27.70;;;;;;5051371;28;20347;-65
2021/08/11 11:07:14;;;;;;;;;;;48.60;27.60;;;;;;5050509;28;20438;-66
2021/08/11 11:09:40;;;;;;;;;;;48.70;27.10;;;;;;5051192;28;19917;-65
2021/08/11 11:12:18;;;;;;;;;;;48.50;27.00;;;;;;5049392;28;19927;-64
2021/08/11 11:14:43;;;;;;;;;;;46.80;25.60;;;;;;5051404;28;20542;-64
2021/08/11 11:17:09;;;;;;;;;;;43.30;26.20;;;;;;5050452;28;19961;-65
2021/08/11 11:19:54;;;;;;;;;;;42.60;28.20;;;;;;5051063;28;19928;-65
2021/08/11 11:22:35;;;;;;;;;;;43.70;28.90;;;;;;5050454;28;19936;-64
2021/08/11 11:25:01;;;;;;;;;;;43.50;27.20;;;;;;5051098;28;20002;-64
2021/08/11 11:27:39;;;;;;;;;;;40.60;26.80;;;;;;5050422;28;19966;-64
2021/08/11 11:30:12;;;;;;;;;;;38.40;28.30;;;;;;5051078;28;19916;-64
2021/08/11 11:32:38;;;;;;;;;;;36.10;28.90;;;;;;5050411;28;19921;-64
2021/08/11 11:35:16;;;;;;;;;;;33.90;30.00;;;;;;5051020;28;20004;-63
2021/08/11 11:37:42;;;;;;;;;;;32.80;32.90;;;;;;5049811;28;20008;-64
2021/08/11 11:40:08;;;;;;;;;;;33.60;35.70;;;;;;5049797;28;19971;-64
2021/08/11 11:42:34;;;;;;;;;;;35.60;35.00;;;;;;5050942;28;19917;-63
2021/08/11 11:45:00;;;;;;;;;;;35.40;32.30;;;;;;5050567;28;20285;-64
2021/08/11 11:47:35;;;;;;;;;;;35.70;34.00;;;;;;5050865;28;20416;-64
2021/08/11 11:50:19;;;;;;;;;;;36.70;34.20;;;;;;5054201;28;19943;-65
2021/08/11 11:52:51;;;;;;;;;;;38.10;33.80;;;;;;5054060;28;19955;-64
2021/08/11 11:55:31;;;;;;;;;;;40.10;34.00;;;;;;5053993;28;19924;-64
2021/08/11 11:58:00;;;;;;;;;;;41.60;32.30;;;;;;5053738;28;20076;-65
2021/08/11 12:00:25;;;;;;;;;;;41.60;30.40;;;;;;5053852;28;19938;-64
2021/08/11 12:02:52;;;;;;;;;;;40.80;29.90;;;;;;5054145;28;20007;-64
2021/08/11 12:05:18;;;;;;;;;;;39.30;29.60;;;;;;5053937;28;20320;-64
2021/08/11 12:07:44;;;;;;;;;;;38.00;29.90;;;;;;5053611;28;20372;-64
2021/08/11 12:10:20;;;;;;;;;;;36.60;29.80;;;;;;5054046;28;19917;-63
2021/08/11 12:13:01;;;;;;;;;;;34.60;30.30;;;;;;5053618;28;19921;-63
2021/08/11 12:15:38;;;;;;;;;;;32.70;31.70;;;;;;5052511;28;19924;-63
2021/08/11 12:18:14;;;;;;;;;;;31.40;33.80;;;;;;5053445;28;19917;-63
2021/08/11 12:20:40;;;;;;;;;;;30.50;34.90;;;;;;5053628;28;20358;-64
2021/08/11 12:23:22;;;;;;;;;;;30.10;36.00;;;;;;5052062;28;19948;-64
2021/08/11 12:25:48;;;;;;;;;;;29.70;36.50;;;;;;5053590;28;19917;-64
2021/08/11 12:28:21;;;;;;;;;;;29.70;37.80;;;;;;5052953;28;19924;-64
2021/08/11 12:30:52;;;;;;;;;;;30.10;37.80;;;;;;5053606;28;19917;-64
2021/08/11 12:33:18;;;;;;;;;;;30.60;38.90;;;;;;5053119;28;19928;-63
2021/08/11 12:35:43;;;;;;;;;;;30.70;38.00;;;;;;5052153;28;20361;-63
2021/08/11 12:38:09;;;;;;;;;;;30.40;38.10;;;;;;5053089;28;19916;-65
2021/08/11 12:40:36;;;;;;;;;;;29.80;38.10;;;;;;5052953;28;19928;-63
2021/08/11 12:43:02;;;;;;;;;;;29.30;38.60;;;;;;5053735;28;19924;-64
2021/08/11 12:45:43;;;;;;;;;;;28.70;39.50;;;;;;5053215;28;19924;-63
2021/08/11 12:48:22;;;;;;;;;;;28.20;39.80;;;;;;5052948;28;19948;-64
2021/08/11 12:50:48;;;;;;;;;;;27.80;40.50;;;;;;5051550;28;19924;-64
2021/08/11 12:53:21;;;;;;;;;;;27.40;41.60;;;;;;5053210;28;19916;-63
2021/08/11 12:55:47;;;;;;;;;;;27.50;42.80;;;;;;5052653;28;19921;-64
2021/08/11 12:58:12;;;;;;;;;;;28.20;42.90;;;;;;5073434;22;19979;-59
2021/08/11 13:00:39;;;;;;;;;;;28.80;42.10;;;;;;5032464;28;19917;-59
2021/08/11 13:03:06;;;;;;;;;;;29.00;41.40;;;;;;5032536;28;20381;-59
2021/08/11 13:05:32;;;;;;;;;;;29.30;41.10;;;;;;5032853;28;20380;-59
2021/08/11 13:07:59;;;;;;;;;;;29.60;41.00;;;;;;5032017;28;19975;-59
2021/08/11 13:10:25;;;;;;;;;;;29.90;41.00;;;;;;5012917;28;19917;-59
2021/08/11 13:12:51;;;;;;;;;;;29.90;40.40;;;;;;5013038;28;19930;-59
2021/08/11 13:15:21;;;;;;;;;;;29.60;40.50;;;;;;5008099;28;21261;-59
2021/08/11 13:17:50;;;;;;;;;;;29.20;40.80;;;;;;5011417;28;20376;-59
2021/08/11 13:20:17;;;;;;;;;;;28.60;40.40;;;;;;5012390;28;19917;-59
2021/08/11 13:22:44;;;;;;;;;;;28.10;41.00;;;;;;5012885;28;20374;-59
2021/08/11 13:25:12;;;;;;;;;;;27.50;41.60;;;;;;5012717;28;19917;-59
2021/08/11 13:27:38;;;;;;;;;;;27.30;42.00;;;;;;5011715;28;19975;-59
2021/08/11 13:30:04;;;;;;;;;;;27.10;42.80;;;;;;4998242;28;19922;-59
2021/08/11 13:32:31;;;;;;;;;;;27.00;43.20;;;;;;5007938;28;19973;-59
2021/08/11 13:34:57;;;;;;;;;;;27.00;43.30;;;;;;5002792;28;20381;-59
2021/08/11 13:37:22;;;;;;;;;;;26.90;43.30;;;;;;5012257;28;19963;-59
2021/08/11 13:39:48;;;;;;;;;;;26.90;44.00;;;;;;5008116;28;19925;-59
2021/08/11 13:42:14;;;;;;;;;;;26.90;44.10;;;;;;5012605;28;20003;-59
2021/08/11 13:44:39;;;;;;;;;;;26.80;44.30;;;;;;5012531;28;20016;-59
2021/08/11 13:47:05;;;;;;;;;;;26.70;44.80;;;;;;5011712;28;19917;-59
2021/08/11 13:49:30;;;;;;;;;;;26.70;45.30;;;;;;5012280;28;19918;-59
2021/08/11 13:51:56;;;;;;;;;;;26.70;45.20;;;;;;5012279;28;19921;-59
2021/08/11 13:54:22;;;;;;;;;;;26.70;45.70;;;;;;5027074;28;19922;-59
2021/08/11 13:56:51;;;;;;;;;;;26.80;45.90;;;;;;5011911;28;19923;-59
2021/08/11 13:59:17;;;;;;;;;;;26.90;46.10;;;;;;5011535;28;20381;-59
2021/08/11 14:01:43;;;;;;;;;;;26.80;45.70;;;;;;5012194;28;19917;-59
2021/08/11 14:04:08;;;;;;;;;;;26.60;45.50;;;;;;5007508;28;19922;-59
2021/08/11 14:06:34;;;;;;;;;;;26.10;45.60;;;;;;5008986;28;19918;-59
2021/08/11 14:09:00;;;;;;;;;;;25.70;46.60;;;;;;5011516;28;20329;-59
2021/08/11 14:11:25;;;;;;;;;;;25.40;47.10;;;;;;5011091;28;19971;-59
2021/08/11 14:13:51;;;;;;;;;;;25.20;47.90;;;;;;5011502;28;20296;-59
2021/08/11 14:16:16;;;;;;;;;;;25.10;48.20;;;;;;5011913;28;20429;-59
2021/08/11 14:18:42;;;;;;;;;;;24.90;48.40;;;;;;5011509;28;20293;-59